Terminal Aerodrome Forecast
Issued by NWS

Home | Current Version | Previous Version | Graphics & Text | Print | Product List | Glossary Off
Versions: 1 2 3 4 5 6 7 8 9 10 11 12 13 14 15 16 17 18 19 20 21 22 23 24 25 26 27 28 29 30 31 32 33

000
FTUS43 KDDC 141036 AAA
TAFGCK
TAF AMD
KGCK 141036Z 1411/1506 VRB04KT P6SM SCT100 OVC200
     FM141400 06004KT P6SM VCSH OVC020
     FM142300 10004KT 6SM -FZRA OVC010
     FM150200 10005KT 2SM -FZRA OVC008=

USA.gov is the U.S. government's official web portal to all federal, state and local government web resources and services.